»·PEaware :: N2013F KMRY-KLAS

N2013F :: KMRY-KLAS

FLIGHT INFORMATION

Flight Status: Arrived
Operator: Privately registered:
United States
More flights under this callsign
Pilot: Spencer F. (32151)
Aircraft: SOCATA TBM-900
(TBM9)
More flights by this aircraft type
Origin: KMRY Monterey Peninsula
United States
Destination: KLAS McCarran Intl
United States
More flights between these airports :: More routes between these airports
Route: +KMRY DCT KLAS
File this flight plan on PilotEdge
Remarks:
Altitude:
(Current/Filed)
17,500ft
Speed:
(Current/Filed)
270kts
Departed: 05-Nov-20 07:51 PM
Arrived: 05-Nov-20 09:13 PM
Distance/Time
Traveled:
324nm/1:22
Distance/Time
To Go:
Arrived

Flight Plot

Page will automatically refresh every two minutes.

Flight plan parsing failed; only flown route is shown


Map Options




Map Legend


Flown Route
Filed Route
Departure Airport
Arrival Airport
Navaid (VOR, NDB)
Fix

Horizontal Profiles

Position Reports

Time Latitude Longitude Heading Altitude Ground
Speed
05-Nov-20 19:15 36.589294 -121.855045 359 168ft 0kts
05-Nov-20 19:16 36.589294 -121.855045 359 168ft 0kts
05-Nov-20 19:17 36.589294 -121.855045 359 168ft 0kts
05-Nov-20 19:18 36.589294 -121.855045 359 168ft 0kts
05-Nov-20 19:19 36.589294 -121.855045 359 168ft 0kts
05-Nov-20 19:20 36.589294 -121.855045 359 168ft 0kts
05-Nov-20 19:21 36.589294 -121.855045 359 168ft 0kts
05-Nov-20 19:22 36.589294 -121.855045 359 168ft 0kts
05-Nov-20 19:23 36.589294 -121.855045 359 168ft 0kts
05-Nov-20 19:24 36.589294 -121.855045 359 168ft 0kts
05-Nov-20 19:25 36.589294 -121.855045 359 168ft 0kts
05-Nov-20 19:26 36.589294 -121.855045 359 168ft 0kts
05-Nov-20 19:27 36.589294 -121.855045 359 168ft 0kts
05-Nov-20 19:28 36.589294 -121.855045 359 168ft 0kts
05-Nov-20 19:29 36.589294 -121.855045 359 168ft 0kts
05-Nov-20 19:30 36.589294 -121.855045 359 168ft 0kts
05-Nov-20 19:31 36.589294 -121.855045 359 168ft 0kts
05-Nov-20 19:32 36.589294 -121.855045 359 168ft 0kts
05-Nov-20 19:33 36.589294 -121.855045 359 168ft 0kts
05-Nov-20 19:34 36.589294 -121.855045 359 168ft 0kts
05-Nov-20 19:35 36.589294 -121.855045 359 168ft 0kts
05-Nov-20 19:36 36.589294 -121.855045 359 168ft 0kts
05-Nov-20 19:37 36.589294 -121.855045 359 168ft 0kts
05-Nov-20 19:38 36.589294 -121.855045 359 168ft 0kts
05-Nov-20 19:39 36.589294 -121.855045 359 168ft 0kts
05-Nov-20 19:40 36.589294 -121.855045 359 168ft 0kts
05-Nov-20 19:41 36.589294 -121.855045 359 168ft 0kts
05-Nov-20 19:42 36.589294 -121.855045 359 168ft 0kts
05-Nov-20 19:43 36.589294 -121.855045 359 168ft 0kts
05-Nov-20 19:44 36.589294 -121.855045 359 168ft 0kts
05-Nov-20 19:45 36.589294 -121.855045 359 168ft 0kts
05-Nov-20 19:46 36.587035 -121.846736 109 204ft 25kts
05-Nov-20 19:47 36.583543 -121.836378 14 250ft 0kts
05-Nov-20 19:48 36.583113 -121.835649 117 253ft 17kts
05-Nov-20 19:49 36.582889 -121.834758 93 256ft 0kts
05-Nov-20 19:50 36.589882 -121.852811 293 602ft 149kts
05-Nov-20 19:51 36.620801 -121.864063 62 3351ft 166kts
05-Nov-20 19:52 36.636506 -121.806391 73 6270ft 184kts
05-Nov-20 19:53 36.652596 -121.743442 72 9206ft 195kts
05-Nov-20 19:54 36.670124 -121.677555 72 11995ft 206kts
05-Nov-20 19:55 36.689001 -121.608240 72 14582ft 216kts
05-Nov-20 19:56 36.709003 -121.536111 72 17021ft 225kts
05-Nov-20 19:57 36.732364 -121.452203 72 17660ft 283kts
05-Nov-20 19:58 36.759173 -121.355224 72 17683ft 303kts
05-Nov-20 19:59 36.786733 -121.255341 72 17678ft 306kts
05-Nov-20 20:00 36.814568 -121.155050 71 17691ft 305kts
05-Nov-20 20:01 36.842390 -121.054849 72 17685ft 305kts
05-Nov-20 20:02 36.870066 -120.954506 72 17696ft 306kts
05-Nov-20 20:03 36.897882 -120.853828 71 17694ft 306kts
05-Nov-20 20:04 36.925693 -120.753307 72 17693ft 307kts
05-Nov-20 20:05 36.953768 -120.652184 71 17694ft 308kts
05-Nov-20 20:06 36.981899 -120.551205 72 17694ft 308kts
05-Nov-20 20:07 37.010223 -120.449664 71 17692ft 308kts
05-Nov-20 20:08 37.038527 -120.348435 71 17690ft 309kts
05-Nov-20 20:09 37.066966 -120.246787 71 17688ft 309kts
05-Nov-20 20:10 37.095329 -120.145175 71 17685ft 308kts
05-Nov-20 20:11 37.123543 -120.044024 71 17682ft 308kts
05-Nov-20 20:12 37.151770 -119.942707 71 17686ft 306kts
05-Nov-20 20:13 37.179640 -119.842230 71 17697ft 303kts
05-Nov-20 20:14 37.199474 -119.740385 86 17700ft 300kts
05-Nov-20 20:15 37.204248 -119.636073 87 17706ft 299kts
05-Nov-20 20:17 37.208619 -119.532187 87 17727ft 298kts
05-Nov-20 20:18 37.213251 -119.428285 87 17743ft 297kts
05-Nov-20 20:19 37.217948 -119.324790 86 17756ft 296kts
05-Nov-20 20:20 37.222553 -119.222054 86 17773ft 294kts
05-Nov-20 20:21 37.227238 -119.119428 86 17791ft 292kts
05-Nov-20 20:22 37.232017 -119.018080 86 17807ft 290kts
05-Nov-20 20:23 37.236894 -118.916878 86 17819ft 290kts
05-Nov-20 20:24 37.241950 -118.815917 86 17828ft 290kts
05-Nov-20 20:25 37.247147 -118.714871 86 17829ft 289kts
05-Nov-20 20:26 37.252490 -118.613894 86 17847ft 290kts
05-Nov-20 20:27 37.257997 -118.512877 86 17826ft 290kts
05-Nov-20 20:28 37.263684 -118.411770 86 17830ft 290kts
05-Nov-20 20:29 37.269652 -118.310550 86 17837ft 290kts
05-Nov-20 20:30 37.275819 -118.209584 86 17804ft 290kts
05-Nov-20 20:31 37.282272 -118.108362 86 17836ft 291kts
05-Nov-20 20:32 37.289178 -118.006675 86 17825ft 292kts
05-Nov-20 20:33 37.293249 -117.904873 95 17827ft 292kts
05-Nov-20 20:33 37.294678 -117.819719 86 17820ft 293kts
05-Nov-20 20:35 37.303799 -117.700417 86 17830ft 295kts
05-Nov-20 20:35 37.310423 -117.614968 86 17815ft 295kts
05-Nov-20 20:37 37.280429 -117.503925 116 17800ft 291kts
05-Nov-20 20:37 37.251259 -117.427510 116 17786ft 290kts
05-Nov-20 20:38 37.216646 -117.336237 116 17764ft 289kts
05-Nov-20 20:39 37.174327 -117.251528 136 17779ft 289kts
05-Nov-20 20:40 37.113560 -117.185532 140 17766ft 288kts
05-Nov-20 20:41 37.052282 -117.120527 139 17762ft 288kts
05-Nov-20 20:42 36.991251 -117.055007 139 17757ft 288kts
05-Nov-20 20:43 36.930593 -116.989431 139 17746ft 289kts
05-Nov-20 20:44 36.869818 -116.923578 139 17739ft 289kts
05-Nov-20 20:45 36.808887 -116.857521 139 17726ft 289kts
05-Nov-20 20:46 36.748320 -116.791928 139 17714ft 289kts
05-Nov-20 20:47 36.687630 -116.726261 139 17708ft 288kts
05-Nov-20 20:48 36.626639 -116.660939 140 17695ft 288kts
05-Nov-20 20:49 36.564126 -116.598299 141 17698ft 289kts
05-Nov-20 20:50 36.501374 -116.535760 141 17693ft 288kts
05-Nov-20 20:51 36.438776 -116.473235 140 17689ft 288kts
05-Nov-20 20:52 36.376396 -116.410887 140 17684ft 288kts
05-Nov-20 20:53 36.313773 -116.348334 140 17681ft 288kts
05-Nov-20 20:54 36.251358 -116.286027 140 17675ft 288kts
05-Nov-20 20:55 36.189085 -116.223950 140 17677ft 287kts
05-Nov-20 20:56 36.126719 -116.161873 140 17684ft 288kts
05-Nov-20 20:57 36.064370 -116.099869 140 17685ft 288kts
05-Nov-20 20:58 36.001835 -116.037757 140 17683ft 288kts
05-Nov-20 20:59 35.939502 -115.975801 137 17673ft 287kts
05-Nov-20 21:00 35.939441 -115.882709 71 17719ft 290kts
05-Nov-20 21:01 35.969489 -115.789462 69 17687ft 292kts
05-Nov-20 21:02 35.999489 -115.698234 69 16381ft 273kts
05-Nov-20 21:03 36.026374 -115.612952 70 13908ft 264kts
05-Nov-20 21:04 36.049212 -115.528723 80 10917ft 252kts
05-Nov-20 21:05 36.057190 -115.444579 83 7949ft 243kts
05-Nov-20 21:06 36.062251 -115.373270 83 6636ft 156kts
05-Nov-20 21:07 36.064912 -115.329496 83 6314ft 121kts
05-Nov-20 21:08 36.067935 -115.285809 82 5462ft 130kts
05-Nov-20 21:09 36.071261 -115.237962 86 5074ft 168kts
05-Nov-20 21:10 36.080445 -115.178448 42 2959ft 172kts
05-Nov-20 21:11 36.113022 -115.153106 48 2705ft 99kts
05-Nov-20 21:12 36.095242 -115.158975 197 2109ft 3kts
05-Nov-20 21:13 36.094193 -115.160800 294 2112ft 0kts
05-Nov-20 21:14 36.094327 -115.161181 296 2111ft 20kts
05-Nov-20 21:15 36.097053 -115.161304 141 2103ft 17kts
05-Nov-20 21:16 36.096888 -115.161127 133 2104ft 0kts
05-Nov-20 21:17 36.096888 -115.161127 133 2104ft 0kts
05-Nov-20 21:18 36.096888 -115.161127 133 2104ft 0kts
05-Nov-20 21:19 36.096888 -115.161127 133 2104ft 0kts

Navigation Log

Ident Type
Flight plan parsing failed, navigation log unavailable